sensor_id;sensor_type;location;lat;lon;timestamp;P1;durP1;ratioP1;P2;durP2;ratioP2
4377;SDS011;2203;53.686;9.994;2023-02-10T00:00:29;57.80;;;20.90;;
4377;SDS011;2203;53.686;9.994;2023-02-10T00:02:54;61.23;;;19.13;;
4377;SDS011;2203;53.686;9.994;2023-02-10T00:05:20;48.17;;;20.93;;
4377;SDS011;2203;53.686;9.994;2023-02-10T00:07:45;62.20;;;23.77;;
4377;SDS011;2203;53.686;9.994;2023-02-10T00:10:10;58.70;;;21.87;;
4377;SDS011;2203;53.686;9.994;2023-02-10T00:12:36;72.47;;;21.67;;
4377;SDS011;2203;53.686;9.994;2023-02-10T00:15:02;62.40;;;21.97;;
4377;SDS011;2203;53.686;9.994;2023-02-10T00:17:29;67.13;;;20.67;;
4377;SDS011;2203;53.686;9.994;2023-02-10T00:19:54;76.20;;;21.03;;
4377;SDS011;2203;53.686;9.994;2023-02-10T00:22:20;59.93;;;21.20;;
4377;SDS011;2203;53.686;9.994;2023-02-10T00:24:45;57.23;;;20.67;;
4377;SDS011;2203;53.686;9.994;2023-02-10T00:27:10;73.87;;;23.70;;
4377;SDS011;2203;53.686;9.994;2023-02-10T00:29:36;75.63;;;21.53;;
4377;SDS011;2203;53.686;9.994;2023-02-10T00:32:01;56.47;;;21.27;;
4377;SDS011;2203;53.686;9.994;2023-02-10T00:34:27;58.33;;;20.20;;
4377;SDS011;2203;53.686;9.994;2023-02-10T00:36:53;64.00;;;19.87;;
4377;SDS011;2203;53.686;9.994;2023-02-10T00:39:18;58.50;;;20.13;;
4377;SDS011;2203;53.686;9.994;2023-02-10T00:41:43;55.80;;;20.67;;
4377;SDS011;2203;53.686;9.994;2023-02-10T00:44:09;55.23;;;19.13;;
4377;SDS011;2203;53.686;9.994;2023-02-10T00:46:34;68.60;;;20.30;;
4377;SDS011;2203;53.686;9.994;2023-02-10T00:49:00;67.80;;;21.47;;
4377;SDS011;2203;53.686;9.994;2023-02-10T00:51:25;73.33;;;20.20;;
4377;SDS011;2203;53.686;9.994;2023-02-10T00:53:51;56.03;;;20.40;;
4377;SDS011;2203;53.686;9.994;2023-02-10T00:56:18;66.80;;;19.83;;
4377;SDS011;2203;53.686;9.994;2023-02-10T00:58:44;58.97;;;19.83;;
4377;SDS011;2203;53.686;9.994;2023-02-10T01:01:10;44.33;;;19.40;;
4377;SDS011;2203;53.686;9.994;2023-02-10T01:03:35;60.70;;;20.20;;
4377;SDS011;2203;53.686;9.994;2023-02-10T01:06:01;65.83;;;18.80;;
4377;SDS011;2203;53.686;9.994;2023-02-10T01:08:27;75.17;;;19.83;;
4377;SDS011;2203;53.686;9.994;2023-02-10T01:11:02;66.87;;;17.60;;
4377;SDS011;2203;53.686;9.994;2023-02-10T01:13:32;73.73;;;20.93;;
4377;SDS011;2203;53.686;9.994;2023-02-10T01:16:00;55.57;;;18.47;;
4377;SDS011;2203;53.686;9.994;2023-02-10T01:18:28;58.23;;;19.93;;
4377;SDS011;2203;53.686;9.994;2023-02-10T01:20:54;51.83;;;17.60;;
4377;SDS011;2203;53.686;9.994;2023-02-10T01:23:19;63.37;;;20.20;;
4377;SDS011;2203;53.686;9.994;2023-02-10T01:25:45;62.03;;;20.80;;
4377;SDS011;2203;53.686;9.994;2023-02-10T01:28:10;57.20;;;19.80;;
4377;SDS011;2203;53.686;9.994;2023-02-10T01:30:36;45.87;;;18.50;;
4377;SDS011;2203;53.686;9.994;2023-02-10T01:33:01;48.83;;;18.10;;
4377;SDS011;2203;53.686;9.994;2023-02-10T01:35:27;53.97;;;19.57;;
4377;SDS011;2203;53.686;9.994;2023-02-10T01:37:52;57.73;;;18.73;;
4377;SDS011;2203;53.686;9.994;2023-02-10T01:40:19;52.93;;;19.17;;
4377;SDS011;2203;53.686;9.994;2023-02-10T01:42:45;59.00;;;18.97;;
4377;SDS011;2203;53.686;9.994;2023-02-10T01:47:40;59.07;;;18.70;;
4377;SDS011;2203;53.686;9.994;2023-02-10T01:50:06;52.73;;;18.97;;
4377;SDS011;2203;53.686;9.994;2023-02-10T01:52:31;55.60;;;17.50;;
4377;SDS011;2203;53.686;9.994;2023-02-10T01:55:05;58.63;;;19.27;;
4377;SDS011;2203;53.686;9.994;2023-02-10T01:57:32;53.97;;;18.83;;
4377;SDS011;2203;53.686;9.994;2023-02-10T01:59:58;50.93;;;18.63;;
4377;SDS011;2203;53.686;9.994;2023-02-10T02:02:25;68.57;;;17.33;;
4377;SDS011;2203;53.686;9.994;2023-02-10T02:04:52;72.70;;;17.90;;
4377;SDS011;2203;53.686;9.994;2023-02-10T02:07:20;52.63;;;16.50;;
4377;SDS011;2203;53.686;9.994;2023-02-10T02:09:47;50.43;;;17.73;;
4377;SDS011;2203;53.686;9.994;2023-02-10T02:36:40;52.07;;;16.07;;
4377;SDS011;2203;53.686;9.994;2023-02-10T02:39:07;50.57;;;15.40;;
4377;SDS011;2203;53.686;9.994;2023-02-10T02:41:33;45.23;;;16.53;;
4377;SDS011;2203;53.686;9.994;2023-02-10T02:43:58;48.50;;;15.60;;
4377;SDS011;2203;53.686;9.994;2023-02-10T02:46:31;45.60;;;16.50;;
4377;SDS011;2203;53.686;9.994;2023-02-10T02:52:03;58.97;;;16.33;;
4377;SDS011;2203;53.686;9.994;2023-02-10T03:00:14;51.87;;;15.60;;
4377;SDS011;2203;53.686;9.994;2023-02-10T03:02:42;50.07;;;16.40;;
4377;SDS011;2203;53.686;9.994;2023-02-10T03:05:09;72.23;;;16.57;;
4377;SDS011;2203;53.686;9.994;2023-02-10T03:07:35;56.03;;;17.57;;
4377;SDS011;2203;53.686;9.994;2023-02-10T03:10:01;52.03;;;14.83;;
4377;SDS011;2203;53.686;9.994;2023-02-10T03:12:27;38.23;;;15.10;;
4377;SDS011;2203;53.686;9.994;2023-02-10T03:14:53;53.73;;;16.33;;
4377;SDS011;2203;53.686;9.994;2023-02-10T03:17:18;53.97;;;15.90;;
4377;SDS011;2203;53.686;9.994;2023-02-10T03:19:44;38.87;;;14.80;;
4377;SDS011;2203;53.686;9.994;2023-02-10T03:22:09;47.73;;;14.90;;
4377;SDS011;2203;53.686;9.994;2023-02-10T03:24:34;46.53;;;14.60;;
4377;SDS011;2203;53.686;9.994;2023-02-10T03:27:00;44.50;;;14.63;;
4377;SDS011;2203;53.686;9.994;2023-02-10T03:29:25;50.30;;;15.40;;
4377;SDS011;2203;53.686;9.994;2023-02-10T03:31:51;48.10;;;16.30;;
4377;SDS011;2203;53.686;9.994;2023-02-10T03:34:16;39.47;;;14.03;;
4377;SDS011;2203;53.686;9.994;2023-02-10T03:36:42;47.80;;;17.20;;
4377;SDS011;2203;53.686;9.994;2023-02-10T03:39:07;45.57;;;14.10;;
4377;SDS011;2203;53.686;9.994;2023-02-10T03:41:32;50.57;;;14.73;;
4377;SDS011;2203;53.686;9.994;2023-02-10T03:43:58;44.33;;;14.53;;
4377;SDS011;2203;53.686;9.994;2023-02-10T03:46:23;44.63;;;14.90;;
4377;SDS011;2203;53.686;9.994;2023-02-10T03:48:49;45.67;;;14.67;;
4377;SDS011;2203;53.686;9.994;2023-02-10T03:51:14;40.80;;;15.50;;
4377;SDS011;2203;53.686;9.994;2023-02-10T03:53:39;39.97;;;14.33;;
4377;SDS011;2203;53.686;9.994;2023-02-10T03:56:05;63.40;;;16.30;;
4377;SDS011;2203;53.686;9.994;2023-02-10T03:58:31;39.87;;;15.90;;
4377;SDS011;2203;53.686;9.994;2023-02-10T04:00:56;54.33;;;15.30;;
4377;SDS011;2203;53.686;9.994;2023-02-10T04:03:22;42.93;;;15.70;;
4377;SDS011;2203;53.686;9.994;2023-02-10T04:05:47;50.13;;;14.57;;
4377;SDS011;2203;53.686;9.994;2023-02-10T04:08:12;42.63;;;15.50;;
4377;SDS011;2203;53.686;9.994;2023-02-10T04:10:38;52.90;;;15.80;;
4377;SDS011;2203;53.686;9.994;2023-02-10T04:13:03;55.93;;;15.60;;
4377;SDS011;2203;53.686;9.994;2023-02-10T04:15:29;59.63;;;17.10;;
4377;SDS011;2203;53.686;9.994;2023-02-10T04:17:54;43.67;;;15.10;;
4377;SDS011;2203;53.686;9.994;2023-02-10T04:20:21;35.40;;;15.47;;
4377;SDS011;2203;53.686;9.994;2023-02-10T04:22:47;53.93;;;16.27;;
4377;SDS011;2203;53.686;9.994;2023-02-10T04:25:13;47.27;;;16.30;;
4377;SDS011;2203;53.686;9.994;2023-02-10T04:27:38;50.50;;;18.20;;
4377;SDS011;2203;53.686;9.994;2023-02-10T04:30:04;57.90;;;16.23;;
4377;SDS011;2203;53.686;9.994;2023-02-10T04:32:29;60.23;;;16.47;;
4377;SDS011;2203;53.686;9.994;2023-02-10T04:34:55;53.20;;;16.87;;
4377;SDS011;2203;53.686;9.994;2023-02-10T04:37:20;48.77;;;17.27;;
4377;SDS011;2203;53.686;9.994;2023-02-10T04:39:46;44.17;;;16.00;;
4377;SDS011;2203;53.686;9.994;2023-02-10T04:42:11;52.13;;;18.10;;
4377;SDS011;2203;53.686;9.994;2023-02-10T04:44:36;61.13;;;17.23;;
4377;SDS011;2203;53.686;9.994;2023-02-10T04:47:02;47.57;;;17.10;;
4377;SDS011;2203;53.686;9.994;2023-02-10T04:49:28;42.03;;;16.37;;
4377;SDS011;2203;53.686;9.994;2023-02-10T04:51:53;50.00;;;17.90;;
4377;SDS011;2203;53.686;9.994;2023-02-10T04:54:19;51.27;;;18.80;;
4377;SDS011;2203;53.686;9.994;2023-02-10T04:56:45;49.30;;;16.80;;
4377;SDS011;2203;53.686;9.994;2023-02-10T04:59:10;47.33;;;17.37;;
4377;SDS011;2203;53.686;9.994;2023-02-10T05:01:37;56.13;;;16.50;;
4377;SDS011;2203;53.686;9.994;2023-02-10T05:04:02;48.67;;;18.13;;
4377;SDS011;2203;53.686;9.994;2023-02-10T05:06:27;57.67;;;17.43;;
4377;SDS011;2203;53.686;9.994;2023-02-10T05:08:53;51.80;;;17.57;;
4377;SDS011;2203;53.686;9.994;2023-02-10T05:11:18;53.80;;;18.10;;
4377;SDS011;2203;53.686;9.994;2023-02-10T05:13:44;59.57;;;17.63;;
4377;SDS011;2203;53.686;9.994;2023-02-10T05:16:10;49.93;;;18.03;;
4377;SDS011;2203;53.686;9.994;2023-02-10T05:18:36;61.30;;;17.40;;
4377;SDS011;2203;53.686;9.994;2023-02-10T05:21:02;41.47;;;16.13;;
4377;SDS011;2203;53.686;9.994;2023-02-10T05:23:28;55.77;;;18.07;;
4377;SDS011;2203;53.686;9.994;2023-02-10T05:25:53;50.07;;;17.10;;
4377;SDS011;2203;53.686;9.994;2023-02-10T05:28:19;40.67;;;15.70;;
4377;SDS011;2203;53.686;9.994;2023-02-10T05:30:44;58.80;;;17.00;;
4377;SDS011;2203;53.686;9.994;2023-02-10T05:33:09;75.57;;;17.87;;
4377;SDS011;2203;53.686;9.994;2023-02-10T05:35:35;58.03;;;17.33;;
4377;SDS011;2203;53.686;9.994;2023-02-10T05:38:00;56.47;;;16.80;;
4377;SDS011;2203;53.686;9.994;2023-02-10T05:40:27;46.73;;;16.83;;
4377;SDS011;2203;53.686;9.994;2023-02-10T05:42:53;51.33;;;17.23;;
4377;SDS011;2203;53.686;9.994;2023-02-10T05:45:18;63.77;;;18.87;;
4377;SDS011;2203;53.686;9.994;2023-02-10T05:47:43;49.40;;;16.73;;
4377;SDS011;2203;53.686;9.994;2023-02-10T05:50:09;63.70;;;17.60;;
4377;SDS011;2203;53.686;9.994;2023-02-10T05:52:34;59.77;;;17.63;;
4377;SDS011;2203;53.686;9.994;2023-02-10T05:54:59;45.20;;;16.30;;
4377;SDS011;2203;53.686;9.994;2023-02-10T05:57:25;47.30;;;17.23;;
4377;SDS011;2203;53.686;9.994;2023-02-10T05:59:50;49.30;;;17.53;;
4377;SDS011;2203;53.686;9.994;2023-02-10T06:02:16;40.63;;;15.93;;
4377;SDS011;2203;53.686;9.994;2023-02-10T06:04:41;45.07;;;16.40;;
4377;SDS011;2203;53.686;9.994;2023-02-10T06:07:06;56.00;;;16.90;;
4377;SDS011;2203;53.686;9.994;2023-02-10T06:09:32;49.07;;;16.17;;
4377;SDS011;2203;53.686;9.994;2023-02-10T06:11:57;48.50;;;15.97;;
4377;SDS011;2203;53.686;9.994;2023-02-10T06:14:23;45.63;;;15.50;;
4377;SDS011;2203;53.686;9.994;2023-02-10T06:16:48;48.53;;;15.73;;
4377;SDS011;2203;53.686;9.994;2023-02-10T06:19:13;44.80;;;15.60;;
4377;SDS011;2203;53.686;9.994;2023-02-10T06:21:39;53.73;;;16.83;;
4377;SDS011;2203;53.686;9.994;2023-02-10T06:24:04;53.57;;;16.77;;
4377;SDS011;2203;53.686;9.994;2023-02-10T06:26:30;43.07;;;15.80;;
4377;SDS011;2203;53.686;9.994;2023-02-10T06:28:55;44.17;;;16.70;;
4377;SDS011;2203;53.686;9.994;2023-02-10T06:31:21;40.70;;;15.83;;
4377;SDS011;2203;53.686;9.994;2023-02-10T06:33:47;52.80;;;16.47;;
4377;SDS011;2203;53.686;9.994;2023-02-10T06:36:12;45.10;;;14.80;;
4377;SDS011;2203;53.686;9.994;2023-02-10T06:38:38;58.43;;;16.63;;
4377;SDS011;2203;53.686;9.994;2023-02-10T06:41:04;60.93;;;16.23;;
4377;SDS011;2203;53.686;9.994;2023-02-10T06:43:29;53.27;;;16.40;;
4377;SDS011;2203;53.686;9.994;2023-02-10T06:45:55;43.37;;;15.80;;
4377;SDS011;2203;53.686;9.994;2023-02-10T06:48:20;48.03;;;17.07;;
4377;SDS011;2203;53.686;9.994;2023-02-10T06:50:46;45.50;;;15.17;;
4377;SDS011;2203;53.686;9.994;2023-02-10T06:53:12;43.20;;;15.20;;
4377;SDS011;2203;53.686;9.994;2023-02-10T06:55:37;38.40;;;13.87;;
4377;SDS011;2203;53.686;9.994;2023-02-10T06:58:03;47.87;;;15.10;;
4377;SDS011;2203;53.686;9.994;2023-02-10T07:00:29;57.33;;;15.30;;
4377;SDS011;2203;53.686;9.994;2023-02-10T07:02:57;53.80;;;14.33;;
4377;SDS011;2203;53.686;9.994;2023-02-10T07:05:23;37.90;;;14.17;;
4377;SDS011;2203;53.686;9.994;2023-02-10T07:07:48;46.10;;;13.30;;
4377;SDS011;2203;53.686;9.994;2023-02-10T07:10:16;55.83;;;16.10;;
4377;SDS011;2203;53.686;9.994;2023-02-10T07:12:44;35.47;;;13.10;;
4377;SDS011;2203;53.686;9.994;2023-02-10T07:15:11;52.47;;;14.93;;
4377;SDS011;2203;53.686;9.994;2023-02-10T07:17:37;42.80;;;12.73;;
4377;SDS011;2203;53.686;9.994;2023-02-10T07:20:03;40.30;;;13.70;;
4377;SDS011;2203;53.686;9.994;2023-02-10T07:22:29;39.20;;;13.20;;
4377;SDS011;2203;53.686;9.994;2023-02-10T07:24:55;40.40;;;12.60;;
4377;SDS011;2203;53.686;9.994;2023-02-10T07:27:21;38.97;;;12.27;;
4377;SDS011;2203;53.686;9.994;2023-02-10T07:29:47;43.67;;;13.50;;
4377;SDS011;2203;53.686;9.994;2023-02-10T07:32:12;52.70;;;15.73;;
4377;SDS011;2203;53.686;9.994;2023-02-10T07:34:38;44.60;;;13.33;;
4377;SDS011;2203;53.686;9.994;2023-02-10T07:37:05;50.90;;;14.20;;
4377;SDS011;2203;53.686;9.994;2023-02-10T07:39:31;55.07;;;14.77;;
4377;SDS011;2203;53.686;9.994;2023-02-10T07:41:56;39.27;;;12.83;;
4377;SDS011;2203;53.686;9.994;2023-02-10T07:44:21;51.70;;;12.43;;
4377;SDS011;2203;53.686;9.994;2023-02-10T07:46:47;40.70;;;11.23;;
4377;SDS011;2203;53.686;9.994;2023-02-10T07:49:13;43.53;;;12.30;;
4377;SDS011;2203;53.686;9.994;2023-02-10T07:51:38;34.33;;;10.77;;
4377;SDS011;2203;53.686;9.994;2023-02-10T07:54:04;48.30;;;13.50;;
4377;SDS011;2203;53.686;9.994;2023-02-10T07:56:30;36.27;;;12.23;;
4377;SDS011;2203;53.686;9.994;2023-02-10T07:58:56;32.20;;;10.13;;
4377;SDS011;2203;53.686;9.994;2023-02-10T08:01:22;54.70;;;11.80;;
4377;SDS011;2203;53.686;9.994;2023-02-10T08:03:47;36.53;;;11.60;;
4377;SDS011;2203;53.686;9.994;2023-02-10T08:06:18;44.53;;;13.53;;
4377;SDS011;2203;53.686;9.994;2023-02-10T08:08:47;57.00;;;13.27;;
4377;SDS011;2203;53.686;9.994;2023-02-10T08:11:12;47.20;;;13.20;;
4377;SDS011;2203;53.686;9.994;2023-02-10T08:13:38;49.67;;;13.20;;
4377;SDS011;2203;53.686;9.994;2023-02-10T08:16:04;50.57;;;13.90;;
4377;SDS011;2203;53.686;9.994;2023-02-10T08:18:30;66.00;;;15.60;;
4377;SDS011;2203;53.686;9.994;2023-02-10T08:20:58;43.07;;;13.90;;
4377;SDS011;2203;53.686;9.994;2023-02-10T08:23:24;51.40;;;17.00;;
4377;SDS011;2203;53.686;9.994;2023-02-10T08:25:49;49.90;;;15.50;;
4377;SDS011;2203;53.686;9.994;2023-02-10T08:28:16;44.97;;;13.90;;
4377;SDS011;2203;53.686;9.994;2023-02-10T08:30:41;44.87;;;14.43;;
4377;SDS011;2203;53.686;9.994;2023-02-10T08:33:07;44.20;;;15.03;;
4377;SDS011;2203;53.686;9.994;2023-02-10T08:35:34;76.93;;;14.57;;
4377;SDS011;2203;53.686;9.994;2023-02-10T08:38:00;56.13;;;14.90;;
4377;SDS011;2203;53.686;9.994;2023-02-10T08:40:26;47.23;;;15.37;;
4377;SDS011;2203;53.686;9.994;2023-02-10T08:42:51;62.37;;;15.60;;
4377;SDS011;2203;53.686;9.994;2023-02-10T08:45:17;45.63;;;14.53;;
4377;SDS011;2203;53.686;9.994;2023-02-10T08:47:42;45.33;;;15.63;;
4377;SDS011;2203;53.686;9.994;2023-02-10T08:50:07;55.10;;;14.50;;
4377;SDS011;2203;53.686;9.994;2023-02-10T08:52:33;62.80;;;16.07;;
4377;SDS011;2203;53.686;9.994;2023-02-10T08:54:58;50.67;;;16.90;;
4377;SDS011;2203;53.686;9.994;2023-02-10T08:57:24;54.90;;;14.83;;
4377;SDS011;2203;53.686;9.994;2023-02-10T08:59:50;60.90;;;15.77;;
4377;SDS011;2203;53.686;9.994;2023-02-10T09:02:15;46.27;;;15.53;;
4377;SDS011;2203;53.686;9.994;2023-02-10T09:04:41;51.17;;;14.70;;
4377;SDS011;2203;53.686;9.994;2023-02-10T09:07:06;49.60;;;14.37;;
4377;SDS011;2203;53.686;9.994;2023-02-10T09:09:35;51.13;;;11.50;;
4377;SDS011;2203;53.686;9.994;2023-02-10T09:12:03;60.43;;;12.80;;
4377;SDS011;2203;53.686;9.994;2023-02-10T09:14:29;65.10;;;14.13;;
4377;SDS011;2203;53.686;9.994;2023-02-10T09:16:55;48.43;;;13.43;;
4377;SDS011;2203;53.686;9.994;2023-02-10T09:19:20;52.90;;;13.53;;
4377;SDS011;2203;53.686;9.994;2023-02-10T09:21:46;44.07;;;12.27;;
4377;SDS011;2203;53.686;9.994;2023-02-10T09:24:11;57.97;;;13.57;;
4377;SDS011;2203;53.686;9.994;2023-02-10T09:26:40;43.37;;;13.03;;
4377;SDS011;2203;53.686;9.994;2023-02-10T09:29:05;48.70;;;12.30;;
4377;SDS011;2203;53.686;9.994;2023-02-10T09:31:32;51.90;;;15.60;;
4377;SDS011;2203;53.686;9.994;2023-02-10T09:33:58;49.67;;;16.60;;
4377;SDS011;2203;53.686;9.994;2023-02-10T09:36:24;61.43;;;15.73;;
4377;SDS011;2203;53.686;9.994;2023-02-10T09:38:49;53.63;;;16.27;;
4377;SDS011;2203;53.686;9.994;2023-02-10T09:49:16;53.70;;;16.57;;
4377;SDS011;2203;53.686;9.994;2023-02-10T09:54:40;61.00;;;15.30;;
4377;SDS011;2203;53.686;9.994;2023-02-10T09:57:13;61.70;;;17.17;;
4377;SDS011;2203;53.686;9.994;2023-02-10T09:59:41;63.13;;;17.53;;
4377;SDS011;2203;53.686;9.994;2023-02-10T10:02:13;70.90;;;16.60;;
4377;SDS011;2203;53.686;9.994;2023-02-10T10:04:42;50.57;;;16.67;;
4377;SDS011;2203;53.686;9.994;2023-02-10T10:07:13;59.93;;;15.30;;
4377;SDS011;2203;53.686;9.994;2023-02-10T10:09:45;62.13;;;14.70;;
4377;SDS011;2203;53.686;9.994;2023-02-10T10:12:18;71.03;;;15.23;;
4377;SDS011;2203;53.686;9.994;2023-02-10T10:14:44;86.67;;;17.20;;
4377;SDS011;2203;53.686;9.994;2023-02-10T10:20:43;66.67;;;17.00;;
4377;SDS011;2203;53.686;9.994;2023-02-10T10:23:15;48.73;;;18.40;;
4377;SDS011;2203;53.686;9.994;2023-02-10T10:31:15;44.57;;;15.47;;
4377;SDS011;2203;53.686;9.994;2023-02-10T10:36:15;57.90;;;15.67;;
4377;SDS011;2203;53.686;9.994;2023-02-10T10:38:45;46.90;;;15.00;;
4377;SDS011;2203;53.686;9.994;2023-02-10T10:41:15;39.40;;;14.50;;
4377;SDS011;2203;53.686;9.994;2023-02-10T10:43:49;61.83;;;16.80;;
4377;SDS011;2203;53.686;9.994;2023-02-10T10:49:13;54.40;;;16.10;;
4377;SDS011;2203;53.686;9.994;2023-02-10T10:51:39;49.40;;;14.03;;
4377;SDS011;2203;53.686;9.994;2023-02-10T10:54:05;43.90;;;15.20;;
4377;SDS011;2203;53.686;9.994;2023-02-10T10:56:42;52.77;;;15.83;;
4377;SDS011;2203;53.686;9.994;2023-02-10T10:59:38;56.10;;;13.93;;
4377;SDS011;2203;53.686;9.994;2023-02-10T11:02:25;50.67;;;15.20;;
4377;SDS011;2203;53.686;9.994;2023-02-10T11:05:01;46.60;;;15.13;;
4377;SDS011;2203;53.686;9.994;2023-02-10T11:07:26;41.97;;;13.83;;
4377;SDS011;2203;53.686;9.994;2023-02-10T11:09:53;56.67;;;15.90;;
4377;SDS011;2203;53.686;9.994;2023-02-10T11:14:57;46.73;;;15.80;;
4377;SDS011;2203;53.686;9.994;2023-02-10T11:20:00;50.37;;;17.40;;
4377;SDS011;2203;53.686;9.994;2023-02-10T11:22:42;45.97;;;15.83;;
4377;SDS011;2203;53.686;9.994;2023-02-10T11:27:56;33.87;;;14.10;;
4377;SDS011;2203;53.686;9.994;2023-02-10T11:30:26;44.93;;;15.23;;
4377;SDS011;2203;53.686;9.994;2023-02-10T11:33:00;50.17;;;16.67;;
4377;SDS011;2203;53.686;9.994;2023-02-10T11:35:26;50.20;;;15.40;;
4377;SDS011;2203;53.686;9.994;2023-02-10T11:38:05;52.43;;;15.17;;
4377;SDS011;2203;53.686;9.994;2023-02-10T11:40:48;51.00;;;17.30;;
4377;SDS011;2203;53.686;9.994;2023-02-10T11:43:23;52.47;;;14.33;;
4377;SDS011;2203;53.686;9.994;2023-02-10T11:45:56;45.77;;;15.57;;
4377;SDS011;2203;53.686;9.994;2023-02-10T11:48:27;43.40;;;14.77;;
4377;SDS011;2203;53.686;9.994;2023-02-10T11:51:00;49.40;;;15.03;;
4377;SDS011;2203;53.686;9.994;2023-02-10T11:53:39;50.10;;;14.47;;
4377;SDS011;2203;53.686;9.994;2023-02-10T11:56:20;58.33;;;15.93;;
4377;SDS011;2203;53.686;9.994;2023-02-10T12:01:49;50.33;;;14.90;;
4377;SDS011;2203;53.686;9.994;2023-02-10T12:04:25;47.53;;;14.27;;
4377;SDS011;2203;53.686;9.994;2023-02-10T12:09:57;30.80;;;13.30;;
4377;SDS011;2203;53.686;9.994;2023-02-10T12:12:55;34.70;;;12.20;;
4377;SDS011;2203;53.686;9.994;2023-02-10T12:20:47;41.17;;;13.67;;
4377;SDS011;2203;53.686;9.994;2023-02-10T12:26:47;33.87;;;13.47;;
4377;SDS011;2203;53.686;9.994;2023-02-10T12:31:51;32.43;;;12.87;;
4377;SDS011;2203;53.686;9.994;2023-02-10T12:53:41;30.07;;;9.83;;
4377;SDS011;2203;53.686;9.994;2023-02-10T12:59:00;33.10;;;11.60;;
4377;SDS011;2203;53.686;9.994;2023-02-10T13:01:35;27.70;;;10.33;;
4377;SDS011;2203;53.686;9.994;2023-02-10T13:04:16;35.20;;;10.13;;
4377;SDS011;2203;53.686;9.994;2023-02-10T13:09:30;28.70;;;9.03;;
4377;SDS011;2203;53.686;9.994;2023-02-10T13:12:23;23.10;;;7.50;;
4377;SDS011;2203;53.686;9.994;2023-02-10T13:14:53;34.33;;;8.13;;
4377;SDS011;2203;53.686;9.994;2023-02-10T13:17:24;31.50;;;9.70;;
4377;SDS011;2203;53.686;9.994;2023-02-10T13:27:49;40.60;;;9.07;;
4377;SDS011;2203;53.686;9.994;2023-02-10T13:35:50;37.83;;;8.73;;
4377;SDS011;2203;53.686;9.994;2023-02-10T13:38:19;34.73;;;8.40;;
4377;SDS011;2203;53.686;9.994;2023-02-10T13:43:21;25.90;;;7.87;;
4377;SDS011;2203;53.686;9.994;2023-02-10T13:45:50;25.13;;;7.90;;
4377;SDS011;2203;53.686;9.994;2023-02-10T13:48:21;23.20;;;7.40;;
4377;SDS011;2203;53.686;9.994;2023-02-10T13:50:54;29.83;;;7.40;;
4377;SDS011;2203;53.686;9.994;2023-02-10T13:58:35;20.20;;;4.80;;
4377;SDS011;2203;53.686;9.994;2023-02-10T14:01:00;33.60;;;8.47;;
4377;SDS011;2203;53.686;9.994;2023-02-10T14:03:27;20.40;;;7.13;;
4377;SDS011;2203;53.686;9.994;2023-02-10T14:08:30;27.53;;;5.90;;
4377;SDS011;2203;53.686;9.994;2023-02-10T14:13:41;21.87;;;7.07;;
4377;SDS011;2203;53.686;9.994;2023-02-10T14:18:40;19.33;;;5.43;;
4377;SDS011;2203;53.686;9.994;2023-02-10T14:21:13;23.70;;;5.93;;
4377;SDS011;2203;53.686;9.994;2023-02-10T14:23:40;25.00;;;7.20;;
4377;SDS011;2203;53.686;9.994;2023-02-10T14:26:17;43.47;;;7.93;;
4377;SDS011;2203;53.686;9.994;2023-02-10T14:28:49;21.63;;;5.17;;
4377;SDS011;2203;53.686;9.994;2023-02-10T14:31:19;23.80;;;7.43;;
4377;SDS011;2203;53.686;9.994;2023-02-10T14:33:52;18.23;;;7.27;;
4377;SDS011;2203;53.686;9.994;2023-02-10T14:36:19;40.37;;;8.20;;
4377;SDS011;2203;53.686;9.994;2023-02-10T14:38:51;20.97;;;8.17;;
4377;SDS011;2203;53.686;9.994;2023-02-10T14:41:20;28.93;;;7.90;;
4377;SDS011;2203;53.686;9.994;2023-02-10T14:43:46;42.33;;;8.80;;
4377;SDS011;2203;53.686;9.994;2023-02-10T14:46:19;22.50;;;8.63;;
4377;SDS011;2203;53.686;9.994;2023-02-10T14:48:46;32.57;;;9.10;;
4377;SDS011;2203;53.686;9.994;2023-02-10T14:51:18;40.47;;;10.83;;
4377;SDS011;2203;53.686;9.994;2023-02-10T14:53:46;26.90;;;10.03;;
4377;SDS011;2203;53.686;9.994;2023-02-10T14:56:14;32.40;;;9.40;;
4377;SDS011;2203;53.686;9.994;2023-02-10T14:58:44;38.73;;;9.90;;
4377;SDS011;2203;53.686;9.994;2023-02-10T15:01:13;30.13;;;9.60;;
4377;SDS011;2203;53.686;9.994;2023-02-10T15:03:43;39.83;;;10.07;;
4377;SDS011;2203;53.686;9.994;2023-02-10T15:06:08;24.43;;;9.50;;
4377;SDS011;2203;53.686;9.994;2023-02-10T15:08:39;27.60;;;9.67;;
4377;SDS011;2203;53.686;9.994;2023-02-10T15:11:18;27.50;;;8.67;;
4377;SDS011;2203;53.686;9.994;2023-02-10T15:14:06;28.80;;;10.27;;
4377;SDS011;2203;53.686;9.994;2023-02-10T15:16:36;38.30;;;9.27;;
4377;SDS011;2203;53.686;9.994;2023-02-10T15:19:01;30.73;;;9.07;;
4377;SDS011;2203;53.686;9.994;2023-02-10T15:21:36;25.50;;;8.27;;
4377;SDS011;2203;53.686;9.994;2023-02-10T15:24:02;31.53;;;8.27;;
4377;SDS011;2203;53.686;9.994;2023-02-10T15:26:30;22.60;;;9.47;;
4377;SDS011;2203;53.686;9.994;2023-02-10T15:29:00;22.20;;;8.20;;
4377;SDS011;2203;53.686;9.994;2023-02-10T15:31:54;32.30;;;9.00;;
4377;SDS011;2203;53.686;9.994;2023-02-10T15:34:26;21.23;;;8.07;;
4377;SDS011;2203;53.686;9.994;2023-02-10T15:37:00;36.93;;;9.27;;
4377;SDS011;2203;53.686;9.994;2023-02-10T15:39:34;25.57;;;8.97;;
4377;SDS011;2203;53.686;9.994;2023-02-10T15:42:19;25.30;;;8.93;;
4377;SDS011;2203;53.686;9.994;2023-02-10T15:44:47;36.33;;;10.40;;
4377;SDS011;2203;53.686;9.994;2023-02-10T15:49:45;27.70;;;9.17;;
4377;SDS011;2203;53.686;9.994;2023-02-10T15:52:46;25.10;;;8.83;;
4377;SDS011;2203;53.686;9.994;2023-02-10T15:58:05;30.87;;;10.90;;
4377;SDS011;2203;53.686;9.994;2023-02-10T16:00:35;29.37;;;10.27;;
4377;SDS011;2203;53.686;9.994;2023-02-10T16:03:01;40.27;;;9.83;;
4377;SDS011;2203;53.686;9.994;2023-02-10T16:05:27;22.90;;;9.40;;
4377;SDS011;2203;53.686;9.994;2023-02-10T16:07:53;26.43;;;9.40;;
4377;SDS011;2203;53.686;9.994;2023-02-10T16:10:20;29.00;;;10.70;;
4377;SDS011;2203;53.686;9.994;2023-02-10T16:12:47;23.30;;;10.40;;
4377;SDS011;2203;53.686;9.994;2023-02-10T16:15:14;31.60;;;11.40;;
4377;SDS011;2203;53.686;9.994;2023-02-10T16:17:41;32.70;;;11.20;;
4377;SDS011;2203;53.686;9.994;2023-02-10T16:20:13;35.30;;;11.93;;
4377;SDS011;2203;53.686;9.994;2023-02-10T16:22:40;26.17;;;11.13;;
4377;SDS011;2203;53.686;9.994;2023-02-10T16:25:06;27.43;;;10.60;;
4377;SDS011;2203;53.686;9.994;2023-02-10T16:27:31;38.30;;;11.37;;
4377;SDS011;2203;53.686;9.994;2023-02-10T16:29:57;32.67;;;11.03;;
4377;SDS011;2203;53.686;9.994;2023-02-10T16:32:22;24.27;;;10.37;;
4377;SDS011;2203;53.686;9.994;2023-02-10T16:34:47;37.90;;;12.77;;
4377;SDS011;2203;53.686;9.994;2023-02-10T16:37:20;32.63;;;12.10;;
4377;SDS011;2203;53.686;9.994;2023-02-10T16:39:46;43.70;;;13.37;;
4377;SDS011;2203;53.686;9.994;2023-02-10T16:42:12;34.57;;;12.63;;
4377;SDS011;2203;53.686;9.994;2023-02-10T16:44:38;28.23;;;12.07;;
4377;SDS011;2203;53.686;9.994;2023-02-10T16:47:03;33.33;;;11.13;;
4377;SDS011;2203;53.686;9.994;2023-02-10T16:49:28;23.47;;;11.20;;
4377;SDS011;2203;53.686;9.994;2023-02-10T16:51:54;32.87;;;11.60;;
4377;SDS011;2203;53.686;9.994;2023-02-10T16:54:19;33.07;;;12.23;;
4377;SDS011;2203;53.686;9.994;2023-02-10T16:56:45;23.57;;;11.40;;
4377;SDS011;2203;53.686;9.994;2023-02-10T16:59:14;30.27;;;12.10;;
4377;SDS011;2203;53.686;9.994;2023-02-10T17:01:41;32.93;;;11.63;;
4377;SDS011;2203;53.686;9.994;2023-02-10T17:04:06;25.53;;;11.20;;
4377;SDS011;2203;53.686;9.994;2023-02-10T17:06:32;29.63;;;11.90;;
4377;SDS011;2203;53.686;9.994;2023-02-10T17:09:08;33.33;;;11.93;;
4377;SDS011;2203;53.686;9.994;2023-02-10T17:11:37;25.70;;;11.10;;
4377;SDS011;2203;53.686;9.994;2023-02-10T17:14:03;35.20;;;12.00;;
4377;SDS011;2203;53.686;9.994;2023-02-10T17:16:32;33.83;;;12.23;;
4377;SDS011;2203;53.686;9.994;2023-02-10T17:19:00;29.40;;;10.67;;